<?xml version="1.0" encoding="UTF-8" standalone="no" ?>
<gpx xmlns="http://www.topografix.com/GPX/1/1" xmlns:xsi="http://www.w3.org/2001/XMLSchema-instance" xsi:schemaLocation="http://www.topografix.com/GPX/1/1 http://www.topografix.com/GPX/1/1/gpx.xsd" version="1.1" creator="VisuGPX - https://www.visugpx.com">
  <metadata>
    <name>Eguilles - Borries - grand tour</name>
  </metadata>
  <wpt lat="43.57879" lon="5.31252">
    <ele>305</ele>
    <name><![CDATA[bories]]></name>
  </wpt>
  <trk>
    <name><![CDATA[Eguilles - Borries - grand tour_1]]></name>
    <trkseg>
      <trkpt lat="43.57617" lon="5.32133">
        <ele>332</ele>
        <time>2023-02-14T13:05:27Z</time>
      </trkpt>
      <trkpt lat="43.57616" lon="5.32133">
        <ele>335</ele>
        <time>2023-02-14T13:05:48Z</time>
      </trkpt>
      <trkpt lat="43.57616" lon="5.32133">
        <ele>335</ele>
        <time>2023-02-14T13:06:08Z</time>
      </trkpt>
      <trkpt lat="43.57626" lon="5.32121">
        <ele>339</ele>
        <time>2023-02-14T13:06:29Z</time>
      </trkpt>
      <trkpt lat="43.57631" lon="5.32101">
        <ele>340</ele>
        <time>2023-02-14T13:06:49Z</time>
      </trkpt>
      <trkpt lat="43.57632" lon="5.32092">
        <ele>343</ele>
        <time>2023-02-14T13:07:10Z</time>
      </trkpt>
      <trkpt lat="43.57632" lon="5.32093">
        <ele>343</ele>
        <time>2023-02-14T13:07:31Z</time>
      </trkpt>
      <trkpt lat="43.57636" lon="5.3208">
        <ele>343</ele>
        <time>2023-02-14T13:07:52Z</time>
      </trkpt>
      <trkpt lat="43.57644" lon="5.32065">
        <ele>341</ele>
        <time>2023-02-14T13:08:12Z</time>
      </trkpt>
      <trkpt lat="43.57658" lon="5.32053">
        <ele>342</ele>
        <time>2023-02-14T13:08:33Z</time>
      </trkpt>
      <trkpt lat="43.57665" lon="5.32046">
        <ele>343</ele>
        <time>2023-02-14T13:08:53Z</time>
      </trkpt>
      <trkpt lat="43.57676" lon="5.32038">
        <ele>342</ele>
        <time>2023-02-14T13:09:14Z</time>
      </trkpt>
      <trkpt lat="43.57688" lon="5.32027">
        <ele>342</ele>
        <time>2023-02-14T13:09:34Z</time>
      </trkpt>
      <trkpt lat="43.57697" lon="5.32016">
        <ele>343</ele>
        <time>2023-02-14T13:09:55Z</time>
      </trkpt>
      <trkpt lat="43.57709" lon="5.32006">
        <ele>343</ele>
        <time>2023-02-14T13:10:15Z</time>
      </trkpt>
      <trkpt lat="43.5772" lon="5.31998">
        <ele>345</ele>
        <time>2023-02-14T13:10:36Z</time>
      </trkpt>
      <trkpt lat="43.57736" lon="5.31987">
        <ele>344</ele>
        <time>2023-02-14T13:10:56Z</time>
      </trkpt>
      <trkpt lat="43.5775" lon="5.31976">
        <ele>345</ele>
        <time>2023-02-14T13:11:17Z</time>
      </trkpt>
      <trkpt lat="43.57761" lon="5.31965">
        <ele>345</ele>
        <time>2023-02-14T13:11:38Z</time>
      </trkpt>
      <trkpt lat="43.5777" lon="5.3195">
        <ele>347</ele>
        <time>2023-02-14T13:11:58Z</time>
      </trkpt>
      <trkpt lat="43.57775" lon="5.31942">
        <ele>348</ele>
        <time>2023-02-14T13:12:18Z</time>
      </trkpt>
      <trkpt lat="43.57784" lon="5.31925">
        <ele>346</ele>
        <time>2023-02-14T13:12:39Z</time>
      </trkpt>
      <trkpt lat="43.57789" lon="5.31914">
        <ele>347</ele>
        <time>2023-02-14T13:12:59Z</time>
      </trkpt>
      <trkpt lat="43.57802" lon="5.31916">
        <ele>347</ele>
        <time>2023-02-14T13:13:20Z</time>
      </trkpt>
      <trkpt lat="43.57814" lon="5.31921">
        <ele>347</ele>
        <time>2023-02-14T13:13:41Z</time>
      </trkpt>
      <trkpt lat="43.5783" lon="5.31921">
        <ele>347</ele>
        <time>2023-02-14T13:14:02Z</time>
      </trkpt>
      <trkpt lat="43.57845" lon="5.3192">
        <ele>346</ele>
        <time>2023-02-14T13:14:22Z</time>
      </trkpt>
      <trkpt lat="43.57861" lon="5.31904">
        <ele>358</ele>
        <time>2023-02-14T13:15:44Z</time>
      </trkpt>
      <trkpt lat="43.57861" lon="5.31912">
        <ele>347</ele>
        <time>2023-02-14T13:16:05Z</time>
      </trkpt>
      <trkpt lat="43.57863" lon="5.31909">
        <ele>346</ele>
        <time>2023-02-14T13:16:27Z</time>
      </trkpt>
      <trkpt lat="43.57848" lon="5.31897">
        <ele>382</ele>
        <time>2023-02-14T13:17:24Z</time>
      </trkpt>
      <trkpt lat="43.57849" lon="5.31919">
        <ele>348</ele>
        <time>2023-02-14T13:17:45Z</time>
      </trkpt>
      <trkpt lat="43.57849" lon="5.31921">
        <ele>347</ele>
        <time>2023-02-14T13:18:05Z</time>
      </trkpt>
      <trkpt lat="43.57838" lon="5.31922">
        <ele>345</ele>
        <time>2023-02-14T13:18:26Z</time>
      </trkpt>
      <trkpt lat="43.57827" lon="5.31925">
        <ele>345</ele>
        <time>2023-02-14T13:18:46Z</time>
      </trkpt>
      <trkpt lat="43.57811" lon="5.31925">
        <ele>345</ele>
        <time>2023-02-14T13:19:07Z</time>
      </trkpt>
      <trkpt lat="43.57804" lon="5.3192">
        <ele>346</ele>
        <time>2023-02-14T13:19:27Z</time>
      </trkpt>
      <trkpt lat="43.57794" lon="5.31917">
        <ele>347</ele>
        <time>2023-02-14T13:19:48Z</time>
      </trkpt>
      <trkpt lat="43.57786" lon="5.3192">
        <ele>345</ele>
        <time>2023-02-14T13:20:08Z</time>
      </trkpt>
      <trkpt lat="43.57785" lon="5.3192">
        <ele>345</ele>
        <time>2023-02-14T13:20:29Z</time>
      </trkpt>
      <trkpt lat="43.57789" lon="5.31906">
        <ele>345</ele>
        <time>2023-02-14T13:20:50Z</time>
      </trkpt>
      <trkpt lat="43.57792" lon="5.31887">
        <ele>346</ele>
        <time>2023-02-14T13:21:11Z</time>
      </trkpt>
      <trkpt lat="43.57793" lon="5.31865">
        <ele>346</ele>
        <time>2023-02-14T13:21:31Z</time>
      </trkpt>
      <trkpt lat="43.57793" lon="5.31844">
        <ele>345</ele>
        <time>2023-02-14T13:21:52Z</time>
      </trkpt>
      <trkpt lat="43.57784" lon="5.31829">
        <ele>346</ele>
        <time>2023-02-14T13:22:12Z</time>
      </trkpt>
      <trkpt lat="43.57771" lon="5.31816">
        <ele>346</ele>
        <time>2023-02-14T13:22:33Z</time>
      </trkpt>
      <trkpt lat="43.57758" lon="5.31801">
        <ele>345</ele>
        <time>2023-02-14T13:22:53Z</time>
      </trkpt>
      <trkpt lat="43.57746" lon="5.3178">
        <ele>345</ele>
        <time>2023-02-14T13:23:14Z</time>
      </trkpt>
      <trkpt lat="43.57731" lon="5.31769">
        <ele>344</ele>
        <time>2023-02-14T13:23:35Z</time>
      </trkpt>
      <trkpt lat="43.5772" lon="5.31754">
        <ele>342</ele>
        <time>2023-02-14T13:23:56Z</time>
      </trkpt>
      <trkpt lat="43.57718" lon="5.31732">
        <ele>344</ele>
        <time>2023-02-14T13:24:16Z</time>
      </trkpt>
      <trkpt lat="43.57722" lon="5.31707">
        <ele>346</ele>
        <time>2023-02-14T13:24:37Z</time>
      </trkpt>
      <trkpt lat="43.57723" lon="5.31686">
        <ele>348</ele>
        <time>2023-02-14T13:24:57Z</time>
      </trkpt>
      <trkpt lat="43.57722" lon="5.31666">
        <ele>346</ele>
        <time>2023-02-14T13:25:18Z</time>
      </trkpt>
      <trkpt lat="43.57722" lon="5.31647">
        <ele>345</ele>
        <time>2023-02-14T13:25:39Z</time>
      </trkpt>
      <trkpt lat="43.57725" lon="5.31631">
        <ele>346</ele>
        <time>2023-02-14T13:25:59Z</time>
      </trkpt>
      <trkpt lat="43.57723" lon="5.31627">
        <ele>343</ele>
        <time>2023-02-14T13:26:20Z</time>
      </trkpt>
      <trkpt lat="43.57725" lon="5.31613">
        <ele>346</ele>
        <time>2023-02-14T13:26:41Z</time>
      </trkpt>
      <trkpt lat="43.57733" lon="5.316">
        <ele>348</ele>
        <time>2023-02-14T13:27:01Z</time>
      </trkpt>
      <trkpt lat="43.57736" lon="5.31583">
        <ele>347</ele>
        <time>2023-02-14T13:27:21Z</time>
      </trkpt>
      <trkpt lat="43.57734" lon="5.3156">
        <ele>348</ele>
        <time>2023-02-14T13:27:41Z</time>
      </trkpt>
      <trkpt lat="43.5773" lon="5.31544">
        <ele>349</ele>
        <time>2023-02-14T13:28:02Z</time>
      </trkpt>
      <trkpt lat="43.5773" lon="5.31543">
        <ele>351</ele>
        <time>2023-02-14T13:28:22Z</time>
      </trkpt>
      <trkpt lat="43.57724" lon="5.31523">
        <ele>350</ele>
        <time>2023-02-14T13:28:43Z</time>
      </trkpt>
      <trkpt lat="43.57718" lon="5.315">
        <ele>351</ele>
        <time>2023-02-14T13:29:03Z</time>
      </trkpt>
      <trkpt lat="43.57707" lon="5.31479">
        <ele>348</ele>
        <time>2023-02-14T13:29:24Z</time>
      </trkpt>
      <trkpt lat="43.5769" lon="5.31485">
        <ele>345</ele>
        <time>2023-02-14T13:29:45Z</time>
      </trkpt>
      <trkpt lat="43.57673" lon="5.31487">
        <ele>343</ele>
        <time>2023-02-14T13:30:05Z</time>
      </trkpt>
      <trkpt lat="43.57656" lon="5.31489">
        <ele>342</ele>
        <time>2023-02-14T13:30:25Z</time>
      </trkpt>
      <trkpt lat="43.5764" lon="5.31495">
        <ele>342</ele>
        <time>2023-02-14T13:30:46Z</time>
      </trkpt>
      <trkpt lat="43.57637" lon="5.31512">
        <ele>342</ele>
        <time>2023-02-14T13:31:06Z</time>
      </trkpt>
      <trkpt lat="43.57638" lon="5.31514">
        <ele>343</ele>
        <time>2023-02-14T13:31:27Z</time>
      </trkpt>
      <trkpt lat="43.57637" lon="5.31521">
        <ele>344</ele>
        <time>2023-02-14T13:31:48Z</time>
      </trkpt>
      <trkpt lat="43.57638" lon="5.31544">
        <ele>345</ele>
        <time>2023-02-14T13:32:08Z</time>
      </trkpt>
      <trkpt lat="43.57632" lon="5.31565">
        <ele>344</ele>
        <time>2023-02-14T13:32:28Z</time>
      </trkpt>
      <trkpt lat="43.57633" lon="5.31588">
        <ele>344</ele>
        <time>2023-02-14T13:32:49Z</time>
      </trkpt>
      <trkpt lat="43.57619" lon="5.31588">
        <ele>342</ele>
        <time>2023-02-14T13:33:09Z</time>
      </trkpt>
      <trkpt lat="43.57604" lon="5.31585">
        <ele>342</ele>
        <time>2023-02-14T13:33:30Z</time>
      </trkpt>
      <trkpt lat="43.5759" lon="5.3158">
        <ele>341</ele>
        <time>2023-02-14T13:33:50Z</time>
      </trkpt>
      <trkpt lat="43.57575" lon="5.31577">
        <ele>339</ele>
        <time>2023-02-14T13:34:11Z</time>
      </trkpt>
      <trkpt lat="43.57571" lon="5.31564">
        <ele>339</ele>
        <time>2023-02-14T13:34:32Z</time>
      </trkpt>
      <trkpt lat="43.57577" lon="5.31543">
        <ele>338</ele>
        <time>2023-02-14T13:34:53Z</time>
      </trkpt>
      <trkpt lat="43.57579" lon="5.31517">
        <ele>338</ele>
        <time>2023-02-14T13:35:13Z</time>
      </trkpt>
      <trkpt lat="43.5758" lon="5.31493">
        <ele>340</ele>
        <time>2023-02-14T13:35:34Z</time>
      </trkpt>
      <trkpt lat="43.57585" lon="5.31472">
        <ele>341</ele>
        <time>2023-02-14T13:35:55Z</time>
      </trkpt>
      <trkpt lat="43.57588" lon="5.31451">
        <ele>341</ele>
        <time>2023-02-14T13:36:15Z</time>
      </trkpt>
      <trkpt lat="43.57591" lon="5.31432">
        <ele>339</ele>
        <time>2023-02-14T13:36:35Z</time>
      </trkpt>
      <trkpt lat="43.57594" lon="5.31411">
        <ele>337</ele>
        <time>2023-02-14T13:36:55Z</time>
      </trkpt>
      <trkpt lat="43.57597" lon="5.31386">
        <ele>339</ele>
        <time>2023-02-14T13:37:16Z</time>
      </trkpt>
      <trkpt lat="43.57595" lon="5.31363">
        <ele>340</ele>
        <time>2023-02-14T13:37:36Z</time>
      </trkpt>
      <trkpt lat="43.57597" lon="5.31339">
        <ele>338</ele>
        <time>2023-02-14T13:37:57Z</time>
      </trkpt>
      <trkpt lat="43.57599" lon="5.31319">
        <ele>338</ele>
        <time>2023-02-14T13:38:17Z</time>
      </trkpt>
      <trkpt lat="43.57602" lon="5.31295">
        <ele>339</ele>
        <time>2023-02-14T13:38:38Z</time>
      </trkpt>
      <trkpt lat="43.57606" lon="5.31271">
        <ele>339</ele>
        <time>2023-02-14T13:38:59Z</time>
      </trkpt>
      <trkpt lat="43.57612" lon="5.31252">
        <ele>338</ele>
        <time>2023-02-14T13:39:19Z</time>
      </trkpt>
      <trkpt lat="43.57622" lon="5.31231">
        <ele>337</ele>
        <time>2023-02-14T13:39:40Z</time>
      </trkpt>
      <trkpt lat="43.57626" lon="5.31212">
        <ele>338</ele>
        <time>2023-02-14T13:40:01Z</time>
      </trkpt>
      <trkpt lat="43.57633" lon="5.31189">
        <ele>338</ele>
        <time>2023-02-14T13:40:21Z</time>
      </trkpt>
      <trkpt lat="43.57638" lon="5.31172">
        <ele>338</ele>
        <time>2023-02-14T13:40:41Z</time>
      </trkpt>
      <trkpt lat="43.57646" lon="5.31149">
        <ele>339</ele>
        <time>2023-02-14T13:41:02Z</time>
      </trkpt>
      <trkpt lat="43.57651" lon="5.31128">
        <ele>338</ele>
        <time>2023-02-14T13:41:22Z</time>
      </trkpt>
      <trkpt lat="43.57656" lon="5.31104">
        <ele>339</ele>
        <time>2023-02-14T13:41:43Z</time>
      </trkpt>
      <trkpt lat="43.57662" lon="5.31079">
        <ele>339</ele>
        <time>2023-02-14T13:42:04Z</time>
      </trkpt>
      <trkpt lat="43.57668" lon="5.31058">
        <ele>339</ele>
        <time>2023-02-14T13:42:24Z</time>
      </trkpt>
      <trkpt lat="43.57677" lon="5.31038">
        <ele>337</ele>
        <time>2023-02-14T13:42:45Z</time>
      </trkpt>
      <trkpt lat="43.57684" lon="5.31019">
        <ele>338</ele>
        <time>2023-02-14T13:43:05Z</time>
      </trkpt>
      <trkpt lat="43.5768" lon="5.31002">
        <ele>338</ele>
        <time>2023-02-14T13:43:26Z</time>
      </trkpt>
      <trkpt lat="43.57673" lon="5.30982">
        <ele>337</ele>
        <time>2023-02-14T13:43:46Z</time>
      </trkpt>
      <trkpt lat="43.57674" lon="5.3096">
        <ele>338</ele>
        <time>2023-02-14T13:44:07Z</time>
      </trkpt>
      <trkpt lat="43.5768" lon="5.30939">
        <ele>338</ele>
        <time>2023-02-14T13:44:28Z</time>
      </trkpt>
      <trkpt lat="43.57687" lon="5.30923">
        <ele>339</ele>
        <time>2023-02-14T13:44:48Z</time>
      </trkpt>
      <trkpt lat="43.57698" lon="5.30905">
        <ele>337</ele>
        <time>2023-02-14T13:45:09Z</time>
      </trkpt>
      <trkpt lat="43.57706" lon="5.30887">
        <ele>338</ele>
        <time>2023-02-14T13:45:29Z</time>
      </trkpt>
      <trkpt lat="43.57717" lon="5.3087">
        <ele>336</ele>
        <time>2023-02-14T13:45:49Z</time>
      </trkpt>
      <trkpt lat="43.57728" lon="5.30855">
        <ele>337</ele>
        <time>2023-02-14T13:46:10Z</time>
      </trkpt>
      <trkpt lat="43.57737" lon="5.30839">
        <ele>335</ele>
        <time>2023-02-14T13:46:30Z</time>
      </trkpt>
      <trkpt lat="43.57748" lon="5.30825">
        <ele>335</ele>
        <time>2023-02-14T13:46:51Z</time>
      </trkpt>
      <trkpt lat="43.5776" lon="5.30812">
        <ele>338</ele>
        <time>2023-02-14T13:47:11Z</time>
      </trkpt>
      <trkpt lat="43.57773" lon="5.30803">
        <ele>336</ele>
        <time>2023-02-14T13:47:32Z</time>
      </trkpt>
      <trkpt lat="43.57785" lon="5.30794">
        <ele>338</ele>
        <time>2023-02-14T13:47:52Z</time>
      </trkpt>
      <trkpt lat="43.57796" lon="5.30784">
        <ele>336</ele>
        <time>2023-02-14T13:48:13Z</time>
      </trkpt>
      <trkpt lat="43.57803" lon="5.30769">
        <ele>337</ele>
        <time>2023-02-14T13:48:33Z</time>
      </trkpt>
      <trkpt lat="43.57809" lon="5.30751">
        <ele>338</ele>
        <time>2023-02-14T13:48:53Z</time>
      </trkpt>
      <trkpt lat="43.57813" lon="5.30729">
        <ele>339</ele>
        <time>2023-02-14T13:49:14Z</time>
      </trkpt>
      <trkpt lat="43.57819" lon="5.30708">
        <ele>339</ele>
        <time>2023-02-14T13:49:35Z</time>
      </trkpt>
      <trkpt lat="43.57825" lon="5.30689">
        <ele>340</ele>
        <time>2023-02-14T13:49:55Z</time>
      </trkpt>
      <trkpt lat="43.57831" lon="5.30669">
        <ele>339</ele>
        <time>2023-02-14T13:50:16Z</time>
      </trkpt>
      <trkpt lat="43.57835" lon="5.3065">
        <ele>340</ele>
        <time>2023-02-14T13:50:36Z</time>
      </trkpt>
      <trkpt lat="43.57838" lon="5.30628">
        <ele>340</ele>
        <time>2023-02-14T13:50:57Z</time>
      </trkpt>
      <trkpt lat="43.5784" lon="5.30608">
        <ele>337</ele>
        <time>2023-02-14T13:51:17Z</time>
      </trkpt>
      <trkpt lat="43.5784" lon="5.30586">
        <ele>336</ele>
        <time>2023-02-14T13:51:38Z</time>
      </trkpt>
      <trkpt lat="43.57844" lon="5.30563">
        <ele>338</ele>
        <time>2023-02-14T13:51:59Z</time>
      </trkpt>
      <trkpt lat="43.5785" lon="5.30542">
        <ele>340</ele>
        <time>2023-02-14T13:52:19Z</time>
      </trkpt>
      <trkpt lat="43.57852" lon="5.30521">
        <ele>338</ele>
        <time>2023-02-14T13:52:40Z</time>
      </trkpt>
      <trkpt lat="43.57853" lon="5.30498">
        <ele>339</ele>
        <time>2023-02-14T13:53:00Z</time>
      </trkpt>
      <trkpt lat="43.57852" lon="5.30476">
        <ele>338</ele>
        <time>2023-02-14T13:53:20Z</time>
      </trkpt>
      <trkpt lat="43.57854" lon="5.30451">
        <ele>340</ele>
        <time>2023-02-14T13:53:41Z</time>
      </trkpt>
      <trkpt lat="43.57857" lon="5.30431">
        <ele>342</ele>
        <time>2023-02-14T13:54:01Z</time>
      </trkpt>
      <trkpt lat="43.57862" lon="5.30408">
        <ele>341</ele>
        <time>2023-02-14T13:54:22Z</time>
      </trkpt>
      <trkpt lat="43.57863" lon="5.30393">
        <ele>339</ele>
        <time>2023-02-14T13:54:42Z</time>
      </trkpt>
      <trkpt lat="43.57862" lon="5.30376">
        <ele>341</ele>
        <time>2023-02-14T13:55:03Z</time>
      </trkpt>
      <trkpt lat="43.57866" lon="5.30376">
        <ele>341</ele>
        <time>2023-02-14T13:55:24Z</time>
      </trkpt>
      <trkpt lat="43.57866" lon="5.30374">
        <ele>341</ele>
        <time>2023-02-14T13:55:44Z</time>
      </trkpt>
      <trkpt lat="43.57864" lon="5.30373">
        <ele>341</ele>
        <time>2023-02-14T13:56:05Z</time>
      </trkpt>
      <trkpt lat="43.57864" lon="5.30373">
        <ele>341</ele>
        <time>2023-02-14T13:56:25Z</time>
      </trkpt>
      <trkpt lat="43.57864" lon="5.30373">
        <ele>340</ele>
        <time>2023-02-14T13:56:45Z</time>
      </trkpt>
      <trkpt lat="43.57864" lon="5.30373">
        <ele>340</ele>
        <time>2023-02-14T13:57:06Z</time>
      </trkpt>
      <trkpt lat="43.57864" lon="5.30373">
        <ele>340</ele>
        <time>2023-02-14T13:57:27Z</time>
      </trkpt>
      <trkpt lat="43.57864" lon="5.30373">
        <ele>340</ele>
        <time>2023-02-14T13:57:47Z</time>
      </trkpt>
      <trkpt lat="43.57864" lon="5.30373">
        <ele>340</ele>
        <time>2023-02-14T13:58:08Z</time>
      </trkpt>
      <trkpt lat="43.57864" lon="5.30373">
        <ele>340</ele>
        <time>2023-02-14T13:58:29Z</time>
      </trkpt>
      <trkpt lat="43.57864" lon="5.30373">
        <ele>340</ele>
        <time>2023-02-14T13:58:49Z</time>
      </trkpt>
      <trkpt lat="43.57864" lon="5.30373">
        <ele>340</ele>
        <time>2023-02-14T13:59:10Z</time>
      </trkpt>
      <trkpt lat="43.57864" lon="5.30373">
        <ele>340</ele>
        <time>2023-02-14T13:59:31Z</time>
      </trkpt>
      <trkpt lat="43.57864" lon="5.30373">
        <ele>340</ele>
        <time>2023-02-14T13:59:51Z</time>
      </trkpt>
      <trkpt lat="43.57864" lon="5.30373">
        <ele>340</ele>
        <time>2023-02-14T14:00:12Z</time>
      </trkpt>
      <trkpt lat="43.57863" lon="5.30373">
        <ele>340</ele>
        <time>2023-02-14T14:00:33Z</time>
      </trkpt>
      <trkpt lat="43.57863" lon="5.30373">
        <ele>340</ele>
        <time>2023-02-14T14:00:53Z</time>
      </trkpt>
      <trkpt lat="43.57863" lon="5.30373">
        <ele>340</ele>
        <time>2023-02-14T14:01:13Z</time>
      </trkpt>
      <trkpt lat="43.57863" lon="5.30373">
        <ele>340</ele>
        <time>2023-02-14T14:01:34Z</time>
      </trkpt>
      <trkpt lat="43.57864" lon="5.30372">
        <ele>339</ele>
        <time>2023-02-14T14:01:54Z</time>
      </trkpt>
      <trkpt lat="43.57864" lon="5.30372">
        <ele>339</ele>
        <time>2023-02-14T14:02:15Z</time>
      </trkpt>
      <trkpt lat="43.57864" lon="5.30372">
        <ele>339</ele>
        <time>2023-02-14T14:02:36Z</time>
      </trkpt>
      <trkpt lat="43.57872" lon="5.30371">
        <ele>340</ele>
        <time>2023-02-14T14:02:56Z</time>
      </trkpt>
      <trkpt lat="43.57887" lon="5.30372">
        <ele>341</ele>
        <time>2023-02-14T14:03:17Z</time>
      </trkpt>
      <trkpt lat="43.579" lon="5.30376">
        <ele>339</ele>
        <time>2023-02-14T14:03:38Z</time>
      </trkpt>
      <trkpt lat="43.57908" lon="5.30385">
        <ele>340</ele>
        <time>2023-02-14T14:03:59Z</time>
      </trkpt>
      <trkpt lat="43.57915" lon="5.30401">
        <ele>340</ele>
        <time>2023-02-14T14:04:19Z</time>
      </trkpt>
      <trkpt lat="43.57924" lon="5.30402">
        <ele>341</ele>
        <time>2023-02-14T14:04:39Z</time>
      </trkpt>
      <trkpt lat="43.57933" lon="5.30407">
        <ele>341</ele>
        <time>2023-02-14T14:04:59Z</time>
      </trkpt>
      <trkpt lat="43.57942" lon="5.30405">
        <ele>343</ele>
        <time>2023-02-14T14:05:20Z</time>
      </trkpt>
      <trkpt lat="43.57953" lon="5.30407">
        <ele>343</ele>
        <time>2023-02-14T14:05:40Z</time>
      </trkpt>
      <trkpt lat="43.57966" lon="5.30419">
        <ele>344</ele>
        <time>2023-02-14T14:06:01Z</time>
      </trkpt>
      <trkpt lat="43.57976" lon="5.3043">
        <ele>345</ele>
        <time>2023-02-14T14:06:21Z</time>
      </trkpt>
      <trkpt lat="43.57987" lon="5.30434">
        <ele>346</ele>
        <time>2023-02-14T14:06:41Z</time>
      </trkpt>
      <trkpt lat="43.57997" lon="5.30445">
        <ele>348</ele>
        <time>2023-02-14T14:07:02Z</time>
      </trkpt>
      <trkpt lat="43.58006" lon="5.30446">
        <ele>349</ele>
        <time>2023-02-14T14:07:23Z</time>
      </trkpt>
      <trkpt lat="43.58016" lon="5.30451">
        <ele>350</ele>
        <time>2023-02-14T14:07:43Z</time>
      </trkpt>
      <trkpt lat="43.58025" lon="5.30456">
        <ele>350</ele>
        <time>2023-02-14T14:08:04Z</time>
      </trkpt>
      <trkpt lat="43.58034" lon="5.30461">
        <ele>350</ele>
        <time>2023-02-14T14:08:24Z</time>
      </trkpt>
      <trkpt lat="43.58047" lon="5.30468">
        <ele>349</ele>
        <time>2023-02-14T14:08:44Z</time>
      </trkpt>
      <trkpt lat="43.58055" lon="5.30474">
        <ele>350</ele>
        <time>2023-02-14T14:09:05Z</time>
      </trkpt>
      <trkpt lat="43.58064" lon="5.30478">
        <ele>350</ele>
        <time>2023-02-14T14:09:25Z</time>
      </trkpt>
      <trkpt lat="43.58072" lon="5.30491">
        <ele>350</ele>
        <time>2023-02-14T14:09:45Z</time>
      </trkpt>
      <trkpt lat="43.58086" lon="5.30493">
        <ele>349</ele>
        <time>2023-02-14T14:10:05Z</time>
      </trkpt>
      <trkpt lat="43.58098" lon="5.30501">
        <ele>349</ele>
        <time>2023-02-14T14:10:26Z</time>
      </trkpt>
      <trkpt lat="43.5811" lon="5.30511">
        <ele>348</ele>
        <time>2023-02-14T14:10:46Z</time>
      </trkpt>
      <trkpt lat="43.58127" lon="5.30515">
        <ele>348</ele>
        <time>2023-02-14T14:11:07Z</time>
      </trkpt>
      <trkpt lat="43.58136" lon="5.30525">
        <ele>350</ele>
        <time>2023-02-14T14:11:27Z</time>
      </trkpt>
      <trkpt lat="43.58146" lon="5.3054">
        <ele>349</ele>
        <time>2023-02-14T14:11:48Z</time>
      </trkpt>
      <trkpt lat="43.58149" lon="5.30546">
        <ele>350</ele>
        <time>2023-02-14T14:12:08Z</time>
      </trkpt>
      <trkpt lat="43.5815" lon="5.30545">
        <ele>350</ele>
        <time>2023-02-14T14:12:29Z</time>
      </trkpt>
      <trkpt lat="43.58159" lon="5.30539">
        <ele>350</ele>
        <time>2023-02-14T14:12:50Z</time>
      </trkpt>
      <trkpt lat="43.58167" lon="5.30541">
        <ele>351</ele>
        <time>2023-02-14T14:13:10Z</time>
      </trkpt>
      <trkpt lat="43.58177" lon="5.30546">
        <ele>349</ele>
        <time>2023-02-14T14:13:31Z</time>
      </trkpt>
      <trkpt lat="43.58186" lon="5.30556">
        <ele>347</ele>
        <time>2023-02-14T14:13:51Z</time>
      </trkpt>
      <trkpt lat="43.58187" lon="5.3056">
        <ele>348</ele>
        <time>2023-02-14T14:14:12Z</time>
      </trkpt>
      <trkpt lat="43.58185" lon="5.30569">
        <ele>346</ele>
        <time>2023-02-14T14:14:32Z</time>
      </trkpt>
      <trkpt lat="43.58181" lon="5.30586">
        <ele>347</ele>
        <time>2023-02-14T14:14:53Z</time>
      </trkpt>
      <trkpt lat="43.58178" lon="5.30606">
        <ele>347</ele>
        <time>2023-02-14T14:15:13Z</time>
      </trkpt>
      <trkpt lat="43.58171" lon="5.30615">
        <ele>345</ele>
        <time>2023-02-14T14:15:34Z</time>
      </trkpt>
      <trkpt lat="43.58157" lon="5.30623">
        <ele>344</ele>
        <time>2023-02-14T14:15:55Z</time>
      </trkpt>
      <trkpt lat="43.58147" lon="5.30631">
        <ele>344</ele>
        <time>2023-02-14T14:16:16Z</time>
      </trkpt>
      <trkpt lat="43.58138" lon="5.3063">
        <ele>344</ele>
        <time>2023-02-14T14:16:36Z</time>
      </trkpt>
      <trkpt lat="43.58131" lon="5.30636">
        <ele>343</ele>
        <time>2023-02-14T14:16:56Z</time>
      </trkpt>
      <trkpt lat="43.58125" lon="5.30649">
        <ele>346</ele>
        <time>2023-02-14T14:17:17Z</time>
      </trkpt>
      <trkpt lat="43.58134" lon="5.30659">
        <ele>344</ele>
        <time>2023-02-14T14:17:37Z</time>
      </trkpt>
      <trkpt lat="43.58124" lon="5.30673">
        <ele>343</ele>
        <time>2023-02-14T14:17:58Z</time>
      </trkpt>
      <trkpt lat="43.58119" lon="5.30684">
        <ele>341</ele>
        <time>2023-02-14T14:18:18Z</time>
      </trkpt>
      <trkpt lat="43.5811" lon="5.30695">
        <ele>340</ele>
        <time>2023-02-14T14:18:39Z</time>
      </trkpt>
      <trkpt lat="43.58105" lon="5.30706">
        <ele>339</ele>
        <time>2023-02-14T14:18:59Z</time>
      </trkpt>
      <trkpt lat="43.581" lon="5.30718">
        <ele>338</ele>
        <time>2023-02-14T14:19:20Z</time>
      </trkpt>
      <trkpt lat="43.58098" lon="5.30724">
        <ele>339</ele>
        <time>2023-02-14T14:19:41Z</time>
      </trkpt>
      <trkpt lat="43.58086" lon="5.30735">
        <ele>338</ele>
        <time>2023-02-14T14:20:01Z</time>
      </trkpt>
      <trkpt lat="43.58077" lon="5.30747">
        <ele>336</ele>
        <time>2023-02-14T14:20:22Z</time>
      </trkpt>
      <trkpt lat="43.58066" lon="5.30759">
        <ele>336</ele>
        <time>2023-02-14T14:20:42Z</time>
      </trkpt>
      <trkpt lat="43.58059" lon="5.3077">
        <ele>337</ele>
        <time>2023-02-14T14:21:03Z</time>
      </trkpt>
      <trkpt lat="43.58058" lon="5.30773">
        <ele>337</ele>
        <time>2023-02-14T14:21:24Z</time>
      </trkpt>
      <trkpt lat="43.58054" lon="5.30777">
        <ele>338</ele>
        <time>2023-02-14T14:21:44Z</time>
      </trkpt>
      <trkpt lat="43.58042" lon="5.30789">
        <ele>338</ele>
        <time>2023-02-14T14:22:04Z</time>
      </trkpt>
      <trkpt lat="43.58028" lon="5.30802">
        <ele>339</ele>
        <time>2023-02-14T14:22:25Z</time>
      </trkpt>
      <trkpt lat="43.58026" lon="5.30819">
        <ele>339</ele>
        <time>2023-02-14T14:22:46Z</time>
      </trkpt>
      <trkpt lat="43.5802" lon="5.30832">
        <ele>339</ele>
        <time>2023-02-14T14:23:06Z</time>
      </trkpt>
      <trkpt lat="43.58025" lon="5.30842">
        <ele>341</ele>
        <time>2023-02-14T14:23:26Z</time>
      </trkpt>
      <trkpt lat="43.58029" lon="5.30856">
        <ele>341</ele>
        <time>2023-02-14T14:23:47Z</time>
      </trkpt>
      <trkpt lat="43.58037" lon="5.30869">
        <ele>342</ele>
        <time>2023-02-14T14:24:07Z</time>
      </trkpt>
      <trkpt lat="43.58046" lon="5.30882">
        <ele>338</ele>
        <time>2023-02-14T14:24:28Z</time>
      </trkpt>
      <trkpt lat="43.58057" lon="5.3089">
        <ele>339</ele>
        <time>2023-02-14T14:24:48Z</time>
      </trkpt>
      <trkpt lat="43.58066" lon="5.30898">
        <ele>339</ele>
        <time>2023-02-14T14:25:09Z</time>
      </trkpt>
      <trkpt lat="43.58074" lon="5.30901">
        <ele>339</ele>
        <time>2023-02-14T14:25:30Z</time>
      </trkpt>
      <trkpt lat="43.58081" lon="5.30905">
        <ele>340</ele>
        <time>2023-02-14T14:25:50Z</time>
      </trkpt>
      <trkpt lat="43.5809" lon="5.30915">
        <ele>338</ele>
        <time>2023-02-14T14:26:11Z</time>
      </trkpt>
      <trkpt lat="43.58103" lon="5.30922">
        <ele>338</ele>
        <time>2023-02-14T14:26:32Z</time>
      </trkpt>
      <trkpt lat="43.58113" lon="5.30929">
        <ele>337</ele>
        <time>2023-02-14T14:26:52Z</time>
      </trkpt>
      <trkpt lat="43.58114" lon="5.30931">
        <ele>337</ele>
        <time>2023-02-14T14:27:13Z</time>
      </trkpt>
      <trkpt lat="43.58118" lon="5.30938">
        <ele>339</ele>
        <time>2023-02-14T14:27:34Z</time>
      </trkpt>
      <trkpt lat="43.58125" lon="5.30951">
        <ele>339</ele>
        <time>2023-02-14T14:27:54Z</time>
      </trkpt>
      <trkpt lat="43.58129" lon="5.30955">
        <ele>340</ele>
        <time>2023-02-14T14:28:14Z</time>
      </trkpt>
      <trkpt lat="43.58136" lon="5.30966">
        <ele>341</ele>
        <time>2023-02-14T14:28:34Z</time>
      </trkpt>
      <trkpt lat="43.58138" lon="5.30971">
        <ele>341</ele>
        <time>2023-02-14T14:28:55Z</time>
      </trkpt>
      <trkpt lat="43.58142" lon="5.30976">
        <ele>341</ele>
        <time>2023-02-14T14:29:16Z</time>
      </trkpt>
      <trkpt lat="43.58149" lon="5.30988">
        <ele>345</ele>
        <time>2023-02-14T14:29:36Z</time>
      </trkpt>
      <trkpt lat="43.58155" lon="5.30998">
        <ele>343</ele>
        <time>2023-02-14T14:29:56Z</time>
      </trkpt>
      <trkpt lat="43.58158" lon="5.31006">
        <ele>345</ele>
        <time>2023-02-14T14:30:17Z</time>
      </trkpt>
      <trkpt lat="43.58165" lon="5.31013">
        <ele>344</ele>
        <time>2023-02-14T14:30:37Z</time>
      </trkpt>
      <trkpt lat="43.58168" lon="5.31024">
        <ele>343</ele>
        <time>2023-02-14T14:30:58Z</time>
      </trkpt>
      <trkpt lat="43.58175" lon="5.31037">
        <ele>341</ele>
        <time>2023-02-14T14:31:19Z</time>
      </trkpt>
      <trkpt lat="43.58177" lon="5.31042">
        <ele>341</ele>
        <time>2023-02-14T14:31:40Z</time>
      </trkpt>
      <trkpt lat="43.5818" lon="5.31048">
        <ele>341</ele>
        <time>2023-02-14T14:32:00Z</time>
      </trkpt>
      <trkpt lat="43.58182" lon="5.31063">
        <ele>342</ele>
        <time>2023-02-14T14:32:21Z</time>
      </trkpt>
      <trkpt lat="43.58186" lon="5.31077">
        <ele>341</ele>
        <time>2023-02-14T14:32:42Z</time>
      </trkpt>
      <trkpt lat="43.58187" lon="5.31091">
        <ele>340</ele>
        <time>2023-02-14T14:33:02Z</time>
      </trkpt>
      <trkpt lat="43.58186" lon="5.31105">
        <ele>341</ele>
        <time>2023-02-14T14:33:22Z</time>
      </trkpt>
      <trkpt lat="43.58186" lon="5.31119">
        <ele>341</ele>
        <time>2023-02-14T14:33:42Z</time>
      </trkpt>
      <trkpt lat="43.58184" lon="5.31133">
        <ele>339</ele>
        <time>2023-02-14T14:34:03Z</time>
      </trkpt>
      <trkpt lat="43.58177" lon="5.31154">
        <ele>337</ele>
        <time>2023-02-14T14:34:24Z</time>
      </trkpt>
      <trkpt lat="43.58173" lon="5.31168">
        <ele>337</ele>
        <time>2023-02-14T14:34:45Z</time>
      </trkpt>
      <trkpt lat="43.58172" lon="5.31186">
        <ele>337</ele>
        <time>2023-02-14T14:35:06Z</time>
      </trkpt>
      <trkpt lat="43.58167" lon="5.31203">
        <ele>334</ele>
        <time>2023-02-14T14:35:26Z</time>
      </trkpt>
      <trkpt lat="43.5816" lon="5.31221">
        <ele>333</ele>
        <time>2023-02-14T14:35:47Z</time>
      </trkpt>
      <trkpt lat="43.58158" lon="5.31239">
        <ele>331</ele>
        <time>2023-02-14T14:36:07Z</time>
      </trkpt>
      <trkpt lat="43.58157" lon="5.31247">
        <ele>330</ele>
        <time>2023-02-14T14:36:28Z</time>
      </trkpt>
      <trkpt lat="43.58163" lon="5.31256">
        <ele>331</ele>
        <time>2023-02-14T14:36:48Z</time>
      </trkpt>
      <trkpt lat="43.58163" lon="5.3127">
        <ele>330</ele>
        <time>2023-02-14T14:37:09Z</time>
      </trkpt>
      <trkpt lat="43.58165" lon="5.31278">
        <ele>330</ele>
        <time>2023-02-14T14:37:29Z</time>
      </trkpt>
      <trkpt lat="43.58163" lon="5.31279">
        <ele>329</ele>
        <time>2023-02-14T14:37:50Z</time>
      </trkpt>
      <trkpt lat="43.58167" lon="5.31297">
        <ele>329</ele>
        <time>2023-02-14T14:38:11Z</time>
      </trkpt>
      <trkpt lat="43.58165" lon="5.31323">
        <ele>328</ele>
        <time>2023-02-14T14:38:32Z</time>
      </trkpt>
      <trkpt lat="43.58166" lon="5.31342">
        <ele>324</ele>
        <time>2023-02-14T14:38:52Z</time>
      </trkpt>
      <trkpt lat="43.58164" lon="5.31364">
        <ele>325</ele>
        <time>2023-02-14T14:39:12Z</time>
      </trkpt>
      <trkpt lat="43.58159" lon="5.31381">
        <ele>325</ele>
        <time>2023-02-14T14:39:33Z</time>
      </trkpt>
      <trkpt lat="43.58157" lon="5.31387">
        <ele>327</ele>
        <time>2023-02-14T14:39:53Z</time>
      </trkpt>
      <trkpt lat="43.58155" lon="5.31394">
        <ele>327</ele>
        <time>2023-02-14T14:40:14Z</time>
      </trkpt>
      <trkpt lat="43.58156" lon="5.3141">
        <ele>327</ele>
        <time>2023-02-14T14:40:34Z</time>
      </trkpt>
      <trkpt lat="43.58158" lon="5.31419">
        <ele>325</ele>
        <time>2023-02-14T14:40:55Z</time>
      </trkpt>
      <trkpt lat="43.58156" lon="5.31434">
        <ele>324</ele>
        <time>2023-02-14T14:41:15Z</time>
      </trkpt>
      <trkpt lat="43.58158" lon="5.31448">
        <ele>323</ele>
        <time>2023-02-14T14:41:36Z</time>
      </trkpt>
      <trkpt lat="43.58164" lon="5.31452">
        <ele>321</ele>
        <time>2023-02-14T14:41:57Z</time>
      </trkpt>
      <trkpt lat="43.5817" lon="5.31461">
        <ele>320</ele>
        <time>2023-02-14T14:42:18Z</time>
      </trkpt>
      <trkpt lat="43.58168" lon="5.31479">
        <ele>319</ele>
        <time>2023-02-14T14:42:38Z</time>
      </trkpt>
      <trkpt lat="43.58166" lon="5.31491">
        <ele>318</ele>
        <time>2023-02-14T14:42:59Z</time>
      </trkpt>
      <trkpt lat="43.58168" lon="5.31503">
        <ele>315</ele>
        <time>2023-02-14T14:43:19Z</time>
      </trkpt>
      <trkpt lat="43.58168" lon="5.31512">
        <ele>314</ele>
        <time>2023-02-14T14:43:39Z</time>
      </trkpt>
      <trkpt lat="43.58166" lon="5.31519">
        <ele>312</ele>
        <time>2023-02-14T14:43:59Z</time>
      </trkpt>
      <trkpt lat="43.58164" lon="5.31527">
        <ele>311</ele>
        <time>2023-02-14T14:44:19Z</time>
      </trkpt>
      <trkpt lat="43.58164" lon="5.31529">
        <ele>309</ele>
        <time>2023-02-14T14:44:40Z</time>
      </trkpt>
      <trkpt lat="43.58162" lon="5.3154">
        <ele>309</ele>
        <time>2023-02-14T14:45:01Z</time>
      </trkpt>
      <trkpt lat="43.58157" lon="5.3156">
        <ele>308</ele>
        <time>2023-02-14T14:45:22Z</time>
      </trkpt>
      <trkpt lat="43.58144" lon="5.3156">
        <ele>309</ele>
        <time>2023-02-14T14:45:42Z</time>
      </trkpt>
      <trkpt lat="43.58135" lon="5.31563">
        <ele>311</ele>
        <time>2023-02-14T14:46:03Z</time>
      </trkpt>
      <trkpt lat="43.58122" lon="5.31564">
        <ele>312</ele>
        <time>2023-02-14T14:46:24Z</time>
      </trkpt>
      <trkpt lat="43.58108" lon="5.31565">
        <ele>310</ele>
        <time>2023-02-14T14:46:44Z</time>
      </trkpt>
      <trkpt lat="43.58108" lon="5.31565">
        <ele>311</ele>
        <time>2023-02-14T14:47:06Z</time>
      </trkpt>
      <trkpt lat="43.58099" lon="5.3157">
        <ele>312</ele>
        <time>2023-02-14T14:47:27Z</time>
      </trkpt>
      <trkpt lat="43.581" lon="5.3157">
        <ele>314</ele>
        <time>2023-02-14T14:47:47Z</time>
      </trkpt>
      <trkpt lat="43.58098" lon="5.31572">
        <ele>315</ele>
        <time>2023-02-14T14:48:08Z</time>
      </trkpt>
      <trkpt lat="43.58098" lon="5.31571">
        <ele>314</ele>
        <time>2023-02-14T14:48:28Z</time>
      </trkpt>
      <trkpt lat="43.58096" lon="5.31571">
        <ele>313</ele>
        <time>2023-02-14T14:48:49Z</time>
      </trkpt>
      <trkpt lat="43.58096" lon="5.31571">
        <ele>313</ele>
        <time>2023-02-14T14:49:09Z</time>
      </trkpt>
      <trkpt lat="43.5809" lon="5.31576">
        <ele>314</ele>
        <time>2023-02-14T14:49:29Z</time>
      </trkpt>
      <trkpt lat="43.58079" lon="5.31585">
        <ele>313</ele>
        <time>2023-02-14T14:49:49Z</time>
      </trkpt>
      <trkpt lat="43.58066" lon="5.31598">
        <ele>311</ele>
        <time>2023-02-14T14:50:10Z</time>
      </trkpt>
      <trkpt lat="43.58056" lon="5.31602">
        <ele>313</ele>
        <time>2023-02-14T14:50:31Z</time>
      </trkpt>
      <trkpt lat="43.58041" lon="5.31608">
        <ele>313</ele>
        <time>2023-02-14T14:50:51Z</time>
      </trkpt>
      <trkpt lat="43.58025" lon="5.31616">
        <ele>317</ele>
        <time>2023-02-14T14:51:12Z</time>
      </trkpt>
      <trkpt lat="43.58009" lon="5.31623">
        <ele>321</ele>
        <time>2023-02-14T14:51:32Z</time>
      </trkpt>
      <trkpt lat="43.57995" lon="5.3163">
        <ele>320</ele>
        <time>2023-02-14T14:51:52Z</time>
      </trkpt>
      <trkpt lat="43.57982" lon="5.31638">
        <ele>321</ele>
        <time>2023-02-14T14:52:12Z</time>
      </trkpt>
      <trkpt lat="43.57967" lon="5.31647">
        <ele>320</ele>
        <time>2023-02-14T14:52:33Z</time>
      </trkpt>
      <trkpt lat="43.57951" lon="5.31656">
        <ele>321</ele>
        <time>2023-02-14T14:52:53Z</time>
      </trkpt>
      <trkpt lat="43.57936" lon="5.31666">
        <ele>324</ele>
        <time>2023-02-14T14:53:14Z</time>
      </trkpt>
      <trkpt lat="43.57919" lon="5.31674">
        <ele>323</ele>
        <time>2023-02-14T14:53:35Z</time>
      </trkpt>
      <trkpt lat="43.57906" lon="5.31683">
        <ele>326</ele>
        <time>2023-02-14T14:53:55Z</time>
      </trkpt>
      <trkpt lat="43.57893" lon="5.31692">
        <ele>328</ele>
        <time>2023-02-14T14:54:15Z</time>
      </trkpt>
      <trkpt lat="43.57879" lon="5.31702">
        <ele>331</ele>
        <time>2023-02-14T14:54:36Z</time>
      </trkpt>
      <trkpt lat="43.57868" lon="5.31707">
        <ele>332</ele>
        <time>2023-02-14T14:54:57Z</time>
      </trkpt>
      <trkpt lat="43.57857" lon="5.31695">
        <ele>333</ele>
        <time>2023-02-14T14:55:17Z</time>
      </trkpt>
      <trkpt lat="43.57856" lon="5.3167">
        <ele>338</ele>
        <time>2023-02-14T14:55:38Z</time>
      </trkpt>
      <trkpt lat="43.57855" lon="5.31652">
        <ele>337</ele>
        <time>2023-02-14T14:55:58Z</time>
      </trkpt>
      <trkpt lat="43.57857" lon="5.31656">
        <ele>338</ele>
        <time>2023-02-14T14:56:19Z</time>
      </trkpt>
      <trkpt lat="43.57857" lon="5.31657">
        <ele>337</ele>
        <time>2023-02-14T14:56:39Z</time>
      </trkpt>
      <trkpt lat="43.57857" lon="5.31653">
        <ele>338</ele>
        <time>2023-02-14T14:57:00Z</time>
      </trkpt>
      <trkpt lat="43.57855" lon="5.31629">
        <ele>343</ele>
        <time>2023-02-14T14:57:20Z</time>
      </trkpt>
      <trkpt lat="43.57853" lon="5.3161">
        <ele>343</ele>
        <time>2023-02-14T14:57:41Z</time>
      </trkpt>
      <trkpt lat="43.57843" lon="5.31594">
        <ele>343</ele>
        <time>2023-02-14T14:58:01Z</time>
      </trkpt>
      <trkpt lat="43.57823" lon="5.316">
        <ele>341</ele>
        <time>2023-02-14T14:58:22Z</time>
      </trkpt>
      <trkpt lat="43.57806" lon="5.31604">
        <ele>342</ele>
        <time>2023-02-14T14:58:42Z</time>
      </trkpt>
      <trkpt lat="43.57794" lon="5.31609">
        <ele>340</ele>
        <time>2023-02-14T14:59:02Z</time>
      </trkpt>
      <trkpt lat="43.57774" lon="5.31621">
        <ele>340</ele>
        <time>2023-02-14T14:59:23Z</time>
      </trkpt>
      <trkpt lat="43.57755" lon="5.31624">
        <ele>340</ele>
        <time>2023-02-14T14:59:43Z</time>
      </trkpt>
      <trkpt lat="43.57735" lon="5.3163">
        <ele>346</ele>
        <time>2023-02-14T15:00:03Z</time>
      </trkpt>
      <trkpt lat="43.57721" lon="5.31634">
        <ele>349</ele>
        <time>2023-02-14T15:00:24Z</time>
      </trkpt>
      <trkpt lat="43.57719" lon="5.31637">
        <ele>350</ele>
        <time>2023-02-14T15:00:45Z</time>
      </trkpt>
      <trkpt lat="43.57715" lon="5.31637">
        <ele>349</ele>
        <time>2023-02-14T15:01:05Z</time>
      </trkpt>
      <trkpt lat="43.57697" lon="5.31643">
        <ele>351</ele>
        <time>2023-02-14T15:01:26Z</time>
      </trkpt>
      <trkpt lat="43.5768" lon="5.31647">
        <ele>349</ele>
        <time>2023-02-14T15:01:46Z</time>
      </trkpt>
      <trkpt lat="43.57666" lon="5.31656">
        <ele>348</ele>
        <time>2023-02-14T15:02:06Z</time>
      </trkpt>
      <trkpt lat="43.57651" lon="5.31657">
        <ele>347</ele>
        <time>2023-02-14T15:02:26Z</time>
      </trkpt>
      <trkpt lat="43.5763" lon="5.31655">
        <ele>346</ele>
        <time>2023-02-14T15:02:47Z</time>
      </trkpt>
      <trkpt lat="43.57613" lon="5.3165">
        <ele>344</ele>
        <time>2023-02-14T15:03:08Z</time>
      </trkpt>
      <trkpt lat="43.57595" lon="5.31651">
        <ele>343</ele>
        <time>2023-02-14T15:03:29Z</time>
      </trkpt>
      <trkpt lat="43.57587" lon="5.31652">
        <ele>341</ele>
        <time>2023-02-14T15:03:49Z</time>
      </trkpt>
      <trkpt lat="43.5757" lon="5.31664">
        <ele>342</ele>
        <time>2023-02-14T15:04:10Z</time>
      </trkpt>
      <trkpt lat="43.57566" lon="5.3168">
        <ele>342</ele>
        <time>2023-02-14T15:04:30Z</time>
      </trkpt>
      <trkpt lat="43.57566" lon="5.31699">
        <ele>343</ele>
        <time>2023-02-14T15:04:50Z</time>
      </trkpt>
      <trkpt lat="43.5756" lon="5.31724">
        <ele>344</ele>
        <time>2023-02-14T15:05:11Z</time>
      </trkpt>
      <trkpt lat="43.57558" lon="5.31748">
        <ele>347</ele>
        <time>2023-02-14T15:05:32Z</time>
      </trkpt>
      <trkpt lat="43.57559" lon="5.31774">
        <ele>345</ele>
        <time>2023-02-14T15:05:53Z</time>
      </trkpt>
      <trkpt lat="43.57555" lon="5.31801">
        <ele>348</ele>
        <time>2023-02-14T15:06:13Z</time>
      </trkpt>
      <trkpt lat="43.57554" lon="5.31827">
        <ele>344</ele>
        <time>2023-02-14T15:06:34Z</time>
      </trkpt>
      <trkpt lat="43.57554" lon="5.3185">
        <ele>343</ele>
        <time>2023-02-14T15:06:54Z</time>
      </trkpt>
      <trkpt lat="43.57556" lon="5.3187">
        <ele>342</ele>
        <time>2023-02-14T15:07:15Z</time>
      </trkpt>
      <trkpt lat="43.5756" lon="5.319">
        <ele>341</ele>
        <time>2023-02-14T15:07:35Z</time>
      </trkpt>
      <trkpt lat="43.57565" lon="5.31924">
        <ele>343</ele>
        <time>2023-02-14T15:07:55Z</time>
      </trkpt>
      <trkpt lat="43.57569" lon="5.31947">
        <ele>342</ele>
        <time>2023-02-14T15:08:15Z</time>
      </trkpt>
      <trkpt lat="43.57574" lon="5.3197">
        <ele>341</ele>
        <time>2023-02-14T15:08:35Z</time>
      </trkpt>
      <trkpt lat="43.57577" lon="5.31983">
        <ele>343</ele>
        <time>2023-02-14T15:08:55Z</time>
      </trkpt>
      <trkpt lat="43.57581" lon="5.32007">
        <ele>345</ele>
        <time>2023-02-14T15:09:15Z</time>
      </trkpt>
      <trkpt lat="43.57586" lon="5.32034">
        <ele>348</ele>
        <time>2023-02-14T15:09:35Z</time>
      </trkpt>
      <trkpt lat="43.57593" lon="5.32056">
        <ele>343</ele>
        <time>2023-02-14T15:09:56Z</time>
      </trkpt>
      <trkpt lat="43.576" lon="5.32079">
        <ele>344</ele>
        <time>2023-02-14T15:10:16Z</time>
      </trkpt>
      <trkpt lat="43.57608" lon="5.32103">
        <ele>345</ele>
        <time>2023-02-14T15:10:36Z</time>
      </trkpt>
      <trkpt lat="43.57611" lon="5.32127">
        <ele>342</ele>
        <time>2023-02-14T15:10:57Z</time>
      </trkpt>
    </trkseg>
  </trk>
</gpx>